Silver Wind — C6FG2 — position and weather

sailwx.info

Track history (hours):
 
Tides and Currents Weather Stations Pressure Air Temp Water Temp Dewpoint Dewpoint Depression Visibility Wind Speed Wind Dir Waves Ship Positions

Silver Wind

Operator: V Ships Leisure

Last reported at 2020-Jan-28 10:50 UTC. Time now 2020-Jan-28 21:02 UTC.
Position N 17°55' W 062°60'.

Length 156 m; draft 5.7 m.

Type: Passenger vessel. MMSI: 308814000.

Date/timePositionNaut miles runAvg speedWind from/ knotsBaromVisibWave heightAir tempDewpointWater temp
2020-Jan-28 10:50N 17°55' W 062°60'10817.1
2020-Jan-28 04:30N 18°11' W 064°52'1616.0
2020-Jan-28 03:30N 18°17' W 065°08'5515.8
2020-Jan-28 00:00N 18°33' W 066°04'22 0.7
2020-Jan-26 14:18N 18°39' W 066°27'412.8
2020-Jan-26 13:57N 18°40' W 066°31'  
2020-Jan-24 02:09N 25°26' W 079°54'2515.3
2020-Jan-24 00:30N 25°51' W 079°58'1514.7
2020-Jan-23 23:30N 26°04' W 080°04'3 2.0
2020-Jan-23 21:58N 26°05' W 080°07'0 0.0
2020-Jan-23 16:28N 26°05' W 080°07'0 0.0
2020-Jan-23 15:28N 26°05' W 080°07'0 0.0
2020-Jan-23 13:59N 26°05' W 080°07'0 0.0
2020-Jan-23 12:30N 26°05' W 080°07'4 2.8
2020-Jan-23 11:00N 26°06' W 080°02'10 9.9
2020-Jan-23 10:00N 25°56' W 079°59'50411.2
2020-Jan-21 13:01N 20°31' W 086°58'242 4.8
2020-Jan-19 10:41N 16°31' W 087°31'317.1
2020-Jan-19 10:30N 16°33' W 087°30'917.1
2020-Jan-19 10:00N 16°40' W 087°25'  
Track history (hours):
 
Tides and Currents Weather Stations Pressure Air Temp Water Temp Dewpoint Dewpoint Depression Visibility Wind Speed Wind Dir Waves Ship Positions

Silver Wind

Operator: V Ships Leisure

Last reported at 2020-Jan-28 10:50 UTC. Time now 2020-Jan-28 21:02 UTC.
Position N 17°55' W 062°60'.

Length 156 m; draft 5.7 m.

Type: Passenger vessel. MMSI: 308814000.

Date/timePositionNaut miles runAvg speedWind from/ knotsBaromVisibWave heightAir tempDewpointWater temp
2020-Jan-28 10:50N 17°55' W 062°60'10817.1
2020-Jan-28 04:30N 18°11' W 064°52'1616.0
2020-Jan-28 03:30N 18°17' W 065°08'5515.8
2020-Jan-28 00:00N 18°33' W 066°04'22 0.7
2020-Jan-26 14:18N 18°39' W 066°27'412.8
2020-Jan-26 13:57N 18°40' W 066°31'  
2020-Jan-24 02:09N 25°26' W 079°54'2515.3
2020-Jan-24 00:30N 25°51' W 079°58'1514.7
2020-Jan-23 23:30N 26°04' W 080°04'3 2.0
2020-Jan-23 21:58N 26°05' W 080°07'0 0.0
2020-Jan-23 16:28N 26°05' W 080°07'0 0.0
2020-Jan-23 15:28N 26°05' W 080°07'0 0.0
2020-Jan-23 13:59N 26°05' W 080°07'0 0.0
2020-Jan-23 12:30N 26°05' W 080°07'4 2.8
2020-Jan-23 11:00N 26°06' W 080°02'10 9.9
2020-Jan-23 10:00N 25°56' W 079°59'50411.2
2020-Jan-21 13:01N 20°31' W 086°58'242 4.8
2020-Jan-19 10:41N 16°31' W 087°31'317.1
2020-Jan-19 10:30N 16°33' W 087°30'917.1
2020-Jan-19 10:00N 16°40' W 087°25'  

Dump ship's entire track history